createdAt,value
2023-02-09T00:00:08.011Z,42.08
2023-02-09T00:02:35.014Z,43.00
2023-02-09T00:05:01.988Z,41.35
2023-02-09T00:07:28.984Z,39.50
2023-02-09T00:09:55.949Z,38.90
2023-02-09T00:12:41.308Z,38.22
2023-02-09T00:15:08.785Z,35.85
2023-02-09T00:17:37.221Z,36.08
2023-02-09T00:20:05.778Z,37.38
2023-02-09T00:22:32.780Z,35.22
2023-02-09T00:24:59.827Z,35.25
2023-02-09T00:27:26.775Z,35.25
2023-02-09T00:29:53.719Z,33.53
2023-02-09T00:32:20.671Z,34.15
2023-02-09T00:34:47.667Z,35.42
2023-02-09T00:37:14.616Z,32.67
2023-02-09T00:39:41.522Z,32.63
2023-02-09T00:42:08.554Z,32.55
2023-02-09T00:44:36.746Z,30.65
2023-02-09T00:47:04.470Z,30.88
2023-02-09T00:49:32.090Z,28.98
2023-02-09T00:51:59.033Z,30.20
2023-02-09T00:54:26.013Z,28.00
2023-02-09T00:56:52.944Z,28.60
2023-02-09T00:59:19.911Z,26.88
2023-02-09T01:01:46.969Z,26.98
2023-02-09T01:04:13.947Z,26.00
2023-02-09T01:06:40.920Z,26.05
2023-02-09T01:09:07.992Z,26.10
2023-02-09T01:11:35.033Z,25.98
2023-02-09T01:14:04.279Z,24.50
2023-02-09T01:16:31.839Z,24.45
2023-02-09T01:19:01.082Z,24.90
2023-02-09T01:21:28.593Z,23.90
2023-02-09T01:23:55.978Z,22.67
2023-02-09T01:26:23.427Z,23.73
2023-02-09T01:28:52.032Z,23.30
2023-02-09T01:31:32.367Z,22.20
2023-02-09T01:34:01.914Z,22.27
2023-02-09T01:36:30.355Z,22.45
2023-02-09T01:38:59.463Z,21.50
2023-02-09T01:41:27.541Z,20.90
2023-02-09T01:44:25.645Z,20.52
2023-02-09T01:46:52.931Z,20.83
2023-02-09T01:49:23.006Z,20.92
2023-02-09T01:52:05.708Z,19.25
2023-02-09T01:54:36.390Z,18.58
2023-02-09T01:57:15.759Z,18.95
2023-02-09T01:59:45.056Z,20.08
2023-02-09T02:02:12.493Z,18.48
2023-02-09T02:04:40.618Z,19.05
2023-02-09T02:07:14.167Z,18.27
2023-02-09T02:09:41.174Z,16.88
2023-02-09T02:12:08.136Z,18.17
2023-02-09T02:14:37.322Z,17.50
2023-02-09T02:17:28.831Z,17.42
2023-02-09T02:20:26.669Z,17.15
2023-02-09T02:23:15.553Z,17.10
2023-02-09T02:26:23.576Z,15.70
2023-02-09T02:29:23.414Z,16.08
2023-02-09T02:31:53.194Z,15.35
2023-02-09T02:34:26.026Z,15.35
2023-02-09T02:37:15.093Z,14.45
2023-02-09T02:39:59.443Z,15.35
2023-02-09T02:43:07.736Z,14.95
2023-02-09T02:45:43.609Z,14.43
2023-02-09T02:48:36.055Z,14.55
2023-02-09T02:51:07.136Z,15.25
2023-02-09T02:53:36.907Z,13.20
2023-02-09T02:58:37.597Z,13.93
2023-02-09T03:03:35.743Z,13.38
2023-02-09T03:06:04.553Z,13.52
2023-02-09T03:08:45.565Z,12.63
2023-02-09T03:11:12.548Z,12.20
2023-02-09T03:13:48.441Z,12.95
2023-02-09T03:16:40.624Z,12.50
2023-02-09T03:19:14.686Z,12.50
2023-02-09T03:21:50.197Z,11.80
2023-02-09T03:24:36.975Z,11.57
2023-02-09T03:27:19.959Z,11.48
2023-02-09T03:29:49.442Z,11.15
2023-02-09T03:32:18.032Z,11.75
2023-02-09T03:34:45.386Z,10.93
2023-02-09T03:37:12.507Z,10.50
2023-02-09T03:39:39.477Z,10.57
2023-02-09T03:42:06.810Z,11.18
2023-02-09T03:44:33.753Z,10.43
2023-02-09T03:47:03.265Z,10.13
2023-02-09T03:49:33.622Z,10.35
2023-02-09T03:52:01.898Z,10.30
2023-02-09T03:54:32.368Z,10.30
2023-02-09T03:57:00.375Z,10.90
2023-02-09T03:59:27.901Z,10.02
2023-02-09T04:01:57.790Z,9.85
2023-02-09T04:04:25.385Z,9.90
2023-02-09T04:06:52.360Z,9.13
2023-02-09T04:09:19.493Z,9.35
2023-02-09T04:11:47.284Z,9.60
2023-02-09T04:14:14.259Z,8.88
2023-02-09T04:16:41.319Z,9.60
2023-02-09T04:19:09.735Z,9.05
2023-02-09T04:21:37.541Z,8.63
2023-02-09T04:24:05.038Z,9.40
2023-02-09T04:26:32.540Z,8.88
2023-02-09T04:28:59.498Z,8.15
2023-02-09T04:31:26.761Z,9.07
2023-02-09T04:33:53.812Z,8.20
2023-02-09T04:36:23.382Z,8.23
2023-02-09T04:41:17.428Z,8.48
2023-02-09T04:43:46.342Z,8.02
2023-02-09T04:46:14.485Z,8.57
2023-02-09T04:48:41.990Z,7.93
2023-02-09T04:51:09.375Z,8.30
2023-02-09T04:53:36.575Z,7.93
2023-02-09T04:56:03.682Z,7.70
2023-02-09T04:58:49.250Z,7.88
2023-02-09T05:01:20.060Z,7.38
2023-02-09T05:03:47.348Z,7.45
2023-02-09T05:06:14.477Z,7.35
2023-02-09T05:08:41.467Z,7.15
2023-02-09T05:11:08.527Z,7.45
2023-02-09T05:13:35.466Z,7.13
2023-02-09T05:16:06.991Z,7.47
2023-02-09T05:18:34.949Z,7.15
2023-02-09T05:21:02.101Z,6.43
2023-02-09T05:23:29.132Z,7.22
2023-02-09T05:25:56.618Z,7.10
2023-02-09T05:28:24.949Z,6.78
2023-02-09T05:30:54.014Z,7.15
2023-02-09T05:33:25.152Z,6.25
2023-02-09T05:35:53.295Z,6.95
2023-02-09T05:38:20.268Z,6.35
2023-02-09T05:40:47.569Z,6.30
2023-02-09T05:43:14.698Z,6.68
2023-02-09T05:45:41.735Z,6.53
2023-02-09T05:48:08.697Z,6.32
2023-02-09T05:50:36.093Z,6.45
2023-02-09T05:53:03.222Z,6.55
2023-02-09T05:55:30.331Z,6.22
2023-02-09T05:57:57.280Z,6.10
2023-02-09T06:00:25.246Z,6.65
2023-02-09T06:02:52.343Z,6.53
2023-02-09T06:05:21.004Z,5.88
2023-02-09T06:07:48.516Z,6.10
2023-02-09T06:10:16.507Z,5.50
2023-02-09T06:12:43.680Z,6.47
2023-02-09T06:15:10.745Z,6.28
2023-02-09T06:17:37.897Z,5.97
2023-02-09T06:20:05.324Z,5.97
2023-02-09T06:22:32.357Z,5.18
2023-02-09T06:24:59.317Z,5.60
2023-02-09T06:27:26.249Z,5.60
2023-02-09T06:29:53.399Z,5.40
2023-02-09T06:32:20.340Z,5.63
2023-02-09T06:34:47.259Z,6.10
2023-02-09T06:37:14.255Z,5.53
2023-02-09T06:39:41.176Z,5.53
2023-02-09T06:42:08.148Z,5.47
2023-02-09T06:44:35.080Z,75.45
2023-02-09T06:47:02.002Z,62.00
2023-02-09T06:49:29.137Z,51.97
2023-02-09T06:51:56.421Z,50.72
2023-02-09T06:54:23.642Z,49.00
2023-02-09T06:56:50.623Z,46.30
2023-02-09T06:59:17.537Z,41.42
2023-02-09T07:01:44.596Z,37.47
2023-02-09T07:04:11.542Z,36.38
2023-02-09T07:06:38.503Z,34.88
2023-02-09T07:09:05.516Z,33.00
2023-02-09T07:11:32.543Z,30.00
2023-02-09T07:14:00.004Z,27.88
2023-02-09T07:16:27.111Z,27.92
2023-02-09T07:18:54.076Z,26.13
2023-02-09T07:21:21.561Z,25.15
2023-02-09T07:23:49.440Z,23.38
2023-02-09T07:26:17.900Z,23.30
2023-02-09T07:28:45.005Z,21.83
2023-02-09T07:31:13.750Z,45.85
2023-02-09T07:33:40.965Z,93.53
2023-02-09T07:36:10.819Z,78.95
2023-02-09T07:38:38.724Z,82.68
2023-02-09T07:41:07.433Z,75.88
2023-02-09T07:43:34.900Z,71.40
2023-02-09T07:46:06.917Z,63.85
2023-02-09T07:48:34.341Z,56.63
2023-02-09T07:51:01.665Z,52.38
2023-02-09T07:53:29.365Z,50.78
2023-02-09T07:55:56.779Z,47.67
2023-02-09T07:58:23.933Z,43.60
2023-02-09T08:00:52.084Z,44.38
2023-02-09T08:03:21.169Z,39.85
2023-02-09T08:06:19.584Z,38.17
2023-02-09T08:08:48.337Z,35.33
2023-02-09T08:11:17.951Z,36.75
2023-02-09T08:13:45.201Z,35.08
2023-02-09T08:16:14.092Z,38.70
2023-02-09T08:18:48.580Z,45.72
2023-02-09T08:21:16.249Z,43.72
2023-02-09T08:23:45.132Z,38.33
2023-02-09T08:26:13.873Z,35.33
2023-02-09T08:28:45.491Z,32.55
2023-02-09T08:31:17.619Z,32.60
2023-02-09T08:33:45.801Z,32.92
2023-02-09T08:38:41.901Z,28.97
2023-02-09T08:41:10.825Z,27.35
2023-02-09T08:43:37.823Z,24.83
2023-02-09T08:46:06.931Z,28.52
2023-02-09T08:48:35.951Z,29.30
2023-02-09T08:51:03.709Z,28.77
2023-02-09T08:53:30.713Z,24.42
2023-02-09T08:55:57.893Z,23.45
2023-02-09T08:58:26.101Z,24.13
2023-02-09T09:00:57.187Z,22.67
2023-02-09T09:03:27.913Z,22.38
2023-02-09T09:06:01.647Z,21.50
2023-02-09T09:08:29.653Z,19.40
2023-02-09T09:10:56.661Z,20.15
2023-02-09T09:13:27.336Z,20.10
2023-02-09T09:15:57.920Z,19.58
2023-02-09T09:18:26.216Z,18.20
2023-02-09T09:20:53.517Z,18.00
2023-02-09T09:23:21.441Z,17.63
2023-02-09T09:25:48.988Z,22.67
2023-02-09T09:28:16.670Z,32.38
2023-02-09T09:30:43.684Z,40.63
2023-02-09T09:33:10.737Z,39.30
2023-02-09T09:35:37.924Z,35.15
2023-02-09T09:38:04.898Z,31.60
2023-02-09T09:40:33.730Z,28.83
2023-02-09T09:43:07.998Z,25.53
2023-02-09T09:45:38.401Z,25.08
2023-02-09T09:48:07.622Z,23.33
2023-02-09T09:50:40.260Z,22.80
2023-02-09T09:53:33.809Z,22.15
2023-02-09T09:56:09.202Z,20.13
2023-02-09T09:58:40.571Z,20.35
2023-02-09T10:01:16.153Z,19.98
2023-02-09T10:03:43.719Z,21.17
2023-02-09T10:06:18.187Z,32.95
2023-02-09T10:11:46.162Z,29.58
2023-02-09T10:14:13.193Z,25.50
2023-02-09T10:16:40.420Z,23.23
2023-02-09T10:19:26.146Z,21.65
2023-02-09T10:21:54.048Z,19.75
2023-02-09T10:24:28.144Z,18.38
2023-02-09T10:27:21.435Z,18.15
2023-02-09T10:29:48.449Z,16.98
2023-02-09T10:32:20.591Z,17.45
2023-02-09T10:34:57.031Z,16.45
2023-02-09T10:37:27.053Z,16.15
2023-02-09T10:40:16.639Z,16.08
2023-02-09T10:43:04.726Z,14.80
2023-02-09T10:45:43.745Z,14.48
2023-02-09T10:48:13.898Z,14.35
2023-02-09T10:50:55.879Z,14.30
2023-02-09T10:53:29.950Z,13.57
2023-02-09T10:56:26.968Z,14.13
2023-02-09T11:01:43.730Z,13.43
2023-02-09T11:04:16.780Z,13.15
2023-02-09T11:06:59.472Z,12.45
2023-02-09T11:09:41.344Z,12.40
2023-02-09T11:12:14.476Z,12.45
2023-02-09T11:14:42.652Z,12.40
2023-02-09T11:17:36.594Z,11.52
2023-02-09T11:20:21.734Z,11.05
2023-02-09T11:23:25.057Z,11.60
2023-02-09T11:26:08.289Z,11.10
2023-02-09T11:28:46.592Z,11.63
2023-02-09T11:31:24.234Z,10.13
2023-02-09T11:34:03.272Z,10.65
2023-02-09T11:36:48.143Z,10.07
2023-02-09T11:39:34.475Z,17.42
2023-02-09T11:42:29.866Z,18.55
2023-02-09T11:47:50.970Z,17.63
2023-02-09T11:50:55.372Z,16.00
2023-02-09T11:53:43.924Z,14.70
2023-02-09T11:56:16.168Z,14.50
2023-02-09T11:59:08.577Z,16.98
2023-02-09T12:01:47.857Z,20.55
2023-02-09T12:07:32.881Z,20.92
2023-02-09T12:10:27.101Z,19.20
2023-02-09T12:13:21.329Z,17.92
2023-02-09T12:15:53.880Z,16.33
2023-02-09T12:18:29.438Z,15.43
2023-02-09T12:21:00.984Z,15.20
2023-02-09T12:23:31.538Z,13.50
2023-02-09T12:26:12.197Z,13.68
2023-02-09T12:28:43.546Z,12.90
2023-02-09T12:31:12.019Z,12.30
2023-02-09T12:33:41.066Z,11.43
2023-02-09T12:36:11.117Z,11.77
2023-02-09T12:39:03.894Z,11.38
2023-02-09T12:41:35.168Z,11.02
2023-02-09T12:44:11.139Z,10.40
2023-02-09T12:46:55.989Z,10.48
2023-02-09T12:49:29.188Z,10.68
2023-02-09T12:52:02.157Z,10.50
2023-02-09T12:54:50.108Z,9.95
2023-02-09T12:57:17.331Z,11.98
2023-02-09T12:59:50.707Z,21.17
2023-02-09T13:02:44.785Z,21.98
2023-02-09T13:05:29.236Z,19.95
2023-02-09T13:08:03.907Z,17.70
2023-02-09T13:13:40.597Z,14.63
2023-02-09T13:16:22.431Z,14.25
2023-02-09T13:19:36.367Z,13.90
2023-02-09T13:22:45.414Z,34.95
2023-02-09T13:25:32.949Z,33.95
2023-02-09T13:28:18.044Z,30.45
2023-02-09T13:30:46.325Z,24.58
2023-02-09T13:33:36.918Z,22.17
2023-02-09T13:36:25.040Z,20.27
2023-02-09T13:38:52.519Z,18.35
2023-02-09T13:41:38.230Z,18.27
2023-02-09T13:44:45.443Z,16.75
2023-02-09T13:47:15.593Z,16.02
2023-02-09T13:49:42.752Z,14.38
2023-02-09T13:52:11.971Z,13.90
2023-02-09T13:54:39.949Z,13.13
2023-02-09T13:57:36.640Z,13.30
2023-02-09T14:00:21.704Z,12.70
2023-02-09T14:05:56.378Z,11.60
2023-02-09T14:08:24.173Z,10.40
2023-02-09T14:11:06.131Z,14.45
2023-02-09T14:13:36.903Z,32.00
2023-02-09T14:16:07.258Z,34.75
2023-02-09T14:18:45.948Z,31.92
2023-02-09T14:21:15.021Z,29.75
2023-02-09T14:24:15.350Z,26.92
2023-02-09T14:26:43.691Z,22.40
2023-02-09T14:29:29.753Z,19.75
2023-02-09T14:32:01.952Z,18.48
2023-02-09T14:34:30.397Z,16.33
2023-02-09T14:37:02.049Z,16.48
2023-02-09T14:39:31.468Z,31.38
2023-02-09T14:42:17.980Z,40.15
2023-02-09T14:44:54.522Z,41.05
2023-02-09T14:47:35.401Z,37.90
2023-02-09T14:50:03.118Z,32.75
2023-02-09T14:52:32.597Z,29.92
2023-02-09T14:55:04.646Z,26.30
2023-02-09T14:57:32.899Z,24.20
2023-02-09T14:59:59.773Z,23.30
2023-02-09T15:02:27.940Z,21.08
2023-02-09T15:04:55.251Z,20.58
2023-02-09T15:07:35.365Z,19.73
2023-02-09T15:10:17.088Z,18.80
2023-02-09T15:12:43.934Z,18.38
2023-02-09T15:15:16.210Z,18.10
2023-02-09T15:17:43.115Z,16.52
2023-02-09T15:20:13.444Z,15.95
2023-02-09T15:22:40.347Z,16.00
2023-02-09T15:25:07.367Z,16.17
2023-02-09T15:27:51.362Z,14.98
2023-02-09T15:30:22.232Z,14.75
2023-02-09T15:32:49.813Z,14.02
2023-02-09T15:35:19.037Z,14.18
2023-02-09T15:37:48.514Z,13.48
2023-02-09T15:40:15.416Z,14.23
2023-02-09T15:43:00.652Z,13.73
2023-02-09T15:45:48.242Z,13.40
2023-02-09T15:48:15.400Z,13.23
2023-02-09T15:50:47.536Z,13.05
2023-02-09T15:53:16.306Z,12.27
2023-02-09T15:55:43.551Z,13.02
2023-02-09T15:58:15.482Z,11.93
2023-02-09T16:00:42.455Z,13.10
2023-02-09T16:03:18.656Z,16.00
2023-02-09T16:05:47.102Z,15.75
2023-02-09T16:08:23.236Z,14.45
2023-02-09T16:10:50.625Z,14.20
2023-02-09T16:13:18.829Z,14.00
2023-02-09T16:15:46.217Z,14.45
2023-02-09T16:18:13.219Z,12.98
2023-02-09T16:20:46.919Z,12.77
2023-02-09T16:25:52.511Z,11.10
2023-02-09T16:28:20.944Z,10.98
2023-02-09T16:30:58.375Z,10.50
2023-02-09T16:33:26.537Z,10.93
2023-02-09T16:36:00.188Z,10.88
2023-02-09T16:38:27.718Z,9.57
2023-02-09T16:40:55.128Z,10.30
2023-02-09T16:43:23.052Z,9.88
2023-02-09T16:46:02.688Z,9.50
2023-02-09T16:48:31.389Z,9.80
2023-02-09T16:50:58.653Z,9.57
2023-02-09T16:53:32.855Z,10.10
2023-02-09T16:58:29.203Z,9.40
2023-02-09T17:00:57.376Z,9.85
2023-02-09T17:03:30.713Z,9.88
2023-02-09T17:05:57.887Z,9.20
2023-02-09T17:08:27.381Z,9.27
2023-02-09T17:10:56.080Z,8.95
2023-02-09T17:13:23.211Z,9.50
2023-02-09T17:15:55.957Z,8.75
2023-02-09T17:18:40.723Z,9.52
2023-02-09T17:21:10.369Z,9.30
2023-02-09T17:26:04.153Z,8.57
2023-02-09T17:28:31.369Z,8.73
2023-02-09T17:31:00.225Z,8.88
2023-02-09T17:33:32.420Z,8.40
2023-02-09T17:38:47.172Z,8.25
2023-02-09T17:41:15.912Z,8.13
2023-02-09T17:43:43.436Z,9.30
2023-02-09T17:46:16.377Z,8.70
2023-02-09T17:48:43.388Z,8.88
2023-02-09T17:51:20.767Z,8.70
2023-02-09T17:53:48.730Z,8.43
2023-02-09T17:56:16.776Z,8.18
2023-02-09T17:58:44.560Z,8.52
2023-02-09T18:01:33.265Z,8.68
2023-02-09T18:04:01.763Z,8.83
2023-02-09T18:06:37.764Z,8.35
2023-02-09T18:09:07.417Z,8.52
2023-02-09T18:14:07.411Z,8.57
2023-02-09T18:16:36.490Z,7.90
2023-02-09T18:19:03.624Z,7.97
2023-02-09T18:21:31.440Z,7.72
2023-02-09T18:23:58.262Z,7.95
2023-02-09T18:26:25.108Z,7.93
2023-02-09T18:28:51.995Z,8.00
2023-02-09T18:31:19.875Z,8.45
2023-02-09T18:33:46.927Z,7.95
2023-02-09T18:36:14.931Z,7.80
2023-02-09T18:38:41.974Z,7.97
2023-02-09T18:41:12.243Z,8.57
2023-02-09T18:43:39.451Z,20.73
2023-02-09T18:46:06.489Z,29.33
2023-02-09T18:48:33.462Z,23.48
2023-02-09T18:51:00.322Z,20.92
2023-02-09T18:53:27.242Z,19.23
2023-02-09T18:55:54.261Z,17.02
2023-02-09T18:58:21.146Z,16.60
2023-02-09T19:00:47.978Z,15.40
2023-02-09T19:03:17.638Z,14.95
2023-02-09T19:08:11.672Z,13.40
2023-02-09T19:10:39.692Z,13.10
2023-02-09T19:13:06.695Z,12.77
2023-02-09T19:15:35.230Z,12.10
2023-02-09T19:18:02.645Z,11.73
2023-02-09T19:20:31.250Z,11.18
2023-02-09T19:22:58.447Z,10.95
2023-02-09T19:25:27.131Z,10.90
2023-02-09T19:27:54.366Z,10.60
2023-02-09T19:30:26.351Z,10.00
2023-02-09T19:32:54.682Z,10.98
2023-02-09T19:35:22.479Z,9.88
2023-02-09T19:37:53.102Z,10.35
2023-02-09T19:40:21.836Z,10.10
2023-02-09T19:42:49.265Z,9.10
2023-02-09T19:45:16.445Z,9.48
2023-02-09T19:47:43.401Z,9.57
2023-02-09T19:50:11.074Z,9.85
2023-02-09T19:52:38.822Z,9.07
2023-02-09T19:55:06.095Z,9.25
2023-02-09T19:57:32.962Z,8.40
2023-02-09T19:59:59.786Z,8.32
2023-02-09T20:02:26.731Z,8.38
2023-02-09T20:04:53.942Z,8.48
2023-02-09T20:07:20.839Z,8.27
2023-02-09T20:09:47.747Z,8.82
2023-02-09T20:12:14.686Z,8.27
2023-02-09T20:14:41.523Z,7.22
2023-02-09T20:17:08.375Z,7.35
2023-02-09T20:19:37.080Z,7.20
2023-02-09T20:22:04.126Z,7.23
2023-02-09T20:24:31.125Z,7.05
2023-02-09T20:26:57.998Z,7.93
2023-02-09T20:29:24.860Z,7.85
2023-02-09T20:31:51.844Z,7.22
2023-02-09T20:34:18.884Z,7.43
2023-02-09T20:36:47.973Z,7.38
2023-02-09T20:39:18.591Z,17.38
2023-02-09T20:42:05.915Z,18.50
2023-02-09T20:44:52.056Z,16.42
2023-02-09T20:47:19.686Z,15.32
2023-02-09T20:49:46.518Z,13.90
2023-02-09T20:52:13.439Z,12.98
2023-02-09T20:54:40.527Z,12.80
2023-02-09T20:57:07.412Z,11.63
2023-02-09T20:59:34.810Z,11.85
2023-02-09T21:02:01.844Z,10.05
2023-02-09T21:04:30.193Z,10.60
2023-02-09T21:06:57.709Z,10.20
2023-02-09T21:09:28.353Z,13.20
2023-02-09T21:11:56.157Z,55.45
2023-02-09T21:14:32.302Z,45.03
2023-02-09T21:16:59.598Z,39.30
2023-02-09T21:19:26.501Z,33.72
2023-02-09T21:21:53.734Z,30.67
2023-02-09T21:24:20.741Z,27.63
2023-02-09T21:26:47.707Z,26.90
2023-02-09T21:29:15.326Z,26.13
2023-02-09T21:31:42.366Z,23.15
2023-02-09T21:34:13.670Z,22.27
2023-02-09T21:36:40.590Z,23.08
2023-02-09T21:39:07.470Z,21.58
2023-02-09T21:41:52.759Z,19.17
2023-02-09T21:44:19.804Z,18.00
2023-02-09T21:46:48.984Z,17.75
2023-02-09T21:49:16.136Z,17.20
2023-02-09T21:51:43.114Z,17.17
2023-02-09T21:54:14.961Z,16.25
2023-02-09T21:56:42.423Z,15.23
2023-02-09T21:59:09.956Z,15.55
2023-02-09T22:01:37.247Z,13.98
2023-02-09T22:04:04.517Z,14.57
2023-02-09T22:06:31.574Z,13.77
2023-02-09T22:09:02.419Z,14.13
2023-02-09T22:11:29.390Z,13.05
2023-02-09T22:13:56.305Z,13.07
2023-02-09T22:16:24.096Z,13.68
2023-02-09T22:18:51.338Z,12.98
2023-02-09T22:21:18.915Z,12.77
2023-02-09T22:23:45.836Z,11.80
2023-02-09T22:26:13.872Z,12.40
2023-02-09T22:28:41.753Z,12.63
2023-02-09T22:31:14.172Z,12.65
2023-02-09T22:33:41.131Z,11.13
2023-02-09T22:36:17.951Z,10.90
2023-02-09T22:38:45.029Z,11.65
2023-02-09T22:41:23.429Z,21.02
2023-02-09T22:44:05.563Z,78.03
2023-02-09T22:46:35.149Z,72.40
2023-02-09T22:51:30.757Z,51.05
2023-02-09T22:53:58.811Z,47.63
2023-02-09T22:56:26.716Z,45.38
2023-02-09T22:58:55.043Z,41.25
2023-02-09T23:01:22.177Z,41.55
2023-02-09T23:03:49.536Z,37.40
2023-02-09T23:06:19.428Z,34.75
2023-02-09T23:08:46.410Z,32.42
2023-02-09T23:11:15.634Z,31.13
2023-02-09T23:13:44.269Z,30.58
2023-02-09T23:16:21.395Z,27.55
2023-02-09T23:18:52.854Z,26.60
2023-02-09T23:21:22.630Z,25.30
2023-02-09T23:23:49.684Z,26.17
2023-02-09T23:26:18.044Z,24.40
2023-02-09T23:28:45.022Z,23.00
2023-02-09T23:31:14.708Z,23.33
2023-02-09T23:36:11.268Z,20.40
2023-02-09T23:38:38.269Z,20.75
2023-02-09T23:41:09.945Z,20.50
2023-02-09T23:43:37.071Z,20.38
2023-02-09T23:46:10.667Z,18.50
2023-02-09T23:48:37.672Z,18.63
2023-02-09T23:51:07.129Z,18.20
2023-02-09T23:53:34.693Z,17.65
2023-02-09T23:56:04.754Z,17.80
2023-02-09T23:58:36.673Z,17.25
